Time;durP1;ratioP1;P1;durP2;ratioP2;P2;SDS_P1;SDS_P2;PMS_P1;PMS_P2;Temp;Humidity;BMP_temperature;BMP_pressure;BME280_temperature;BME280_humidity;BME280_pressure;Samples;Min_cycle;Max_cycle;Signal;HPM_P1;HPM_P2
2022/12/14 00:00:08;;;;;;;11.68;6.88;;;;;;;-0.24;62.82;98289.63;341516;28;1700;-77
2022/12/14 00:00:20;;;;;;;11.77;6.85;;;;;;;-0.23;62.63;98291.31;341905;28;1601;-77
2022/12/14 00:00:32;;;;;;;11.10;7.20;;;;;;;-0.22;62.61;98290.44;341748;28;1237;-76
2022/12/14 00:00:45;;;;;;;11.60;7.35;;;;;;;-0.23;62.24;98286.19;342253;28;1305;-75
2022/12/14 00:00:57;;;;;;;11.55;7.38;;;;;;;-0.25;62.73;98287.91;342275;28;1079;-74
2022/12/14 00:01:15;;;;;;;11.65;7.25;;;;;;;-0.25;62.52;98287.91;342440;28;1761;-73
2022/12/14 00:01:27;;;;;;;11.20;7.07;;;;;;;-0.25;62.59;98283.66;342820;28;1651;-74
2022/12/14 00:01:39;;;;;;;11.02;7.00;;;;;;;-0.24;62.96;98279.41;343361;28;1067;-74
2022/12/14 00:01:51;;;;;;;11.35;6.90;;;;;;;-0.24;62.62;98281.97;343279;28;1039;-74
2022/12/14 00:02:05;;;;;;;10.43;6.75;;;;;;;-0.23;63.00;98281.09;343668;28;1011;-74
2022/12/14 00:02:17;;;;;;;9.90;6.65;;;;;;;-0.24;62.27;98279.41;341731;28;1910;-74
2022/12/14 00:02:29;;;;;;;10.75;6.60;;;;;;;-0.24;62.35;98280.25;342128;28;1052;-74
2022/12/14 00:02:41;;;;;;;11.13;6.60;;;;;;;-0.23;62.81;98286.19;342378;28;1006;-76
2022/12/14 00:02:54;;;;;;;11.55;6.68;;;;;;;-0.20;62.92;98286.19;341431;28;1636;-77
2022/12/14 00:03:07;;;;;;;11.88;6.88;;;;;;;-0.19;63.13;98284.47;342421;28;1610;-77
2022/12/14 00:03:20;;;;;;;11.40;6.80;;;;;;;-0.22;62.84;98288.72;341691;28;1886;-77
2022/12/14 00:03:32;;;;;;;11.38;6.57;;;;;;;-0.20;62.57;98286.19;340732;29;924;-74
2022/12/14 00:03:47;;;;;;;13.98;6.43;;;;;;;-0.18;62.46;98281.91;340115;28;2762;-75
2022/12/14 00:03:59;;;;;;;13.52;6.55;;;;;;;-0.19;62.81;98287.84;341904;28;1740;-76
2022/12/14 00:04:11;;;;;;;12.18;6.50;;;;;;;-0.17;63.09;98288.69;342245;28;1278;-77
2022/12/14 00:04:23;;;;;;;10.73;6.07;;;;;;;-0.15;62.32;98278.44;342589;28;1596;-77
2022/12/14 00:04:35;;;;;;;10.63;5.85;;;;;;;-0.19;62.92;98287.84;341756;28;2016;-77
2022/12/14 00:04:47;;;;;;;11.32;5.70;;;;;;;-0.17;62.38;98288.69;340572;29;1662;-75
2022/12/14 00:04:59;;;;;;;10.77;5.60;;;;;;;-0.17;62.95;98290.38;340940;29;1043;-77
2022/12/14 00:05:11;;;;;;;10.45;5.75;;;;;;;-0.18;62.58;98289.56;340797;29;1615;-80
2022/12/14 00:05:23;;;;;;;10.38;5.70;;;;;;;-0.17;62.01;98282.72;340464;28;1181;-74
2022/12/14 00:05:35;;;;;;;10.25;5.63;;;;;;;-0.21;62.56;98281.91;340257;29;1827;-74
2022/12/14 00:05:47;;;;;;;9.70;5.55;;;;;;;-0.19;62.47;98287.84;340527;29;1044;-74
2022/12/14 00:06:07;;;;;;;11.13;5.82;;;;;;;-0.19;62.34;98290.41;339306;29;1260;-74
2022/12/14 00:06:22;;;;;;;12.30;5.88;;;;;;;-0.16;62.59;98282.72;341106;29;1156;-74
2022/12/14 00:06:34;;;;;;;11.15;5.88;;;;;;;-0.15;62.33;98288.66;340599;28;1911;-76
2022/12/14 00:06:46;;;;;;;11.10;5.93;;;;;;;-0.15;62.43;98281.84;339693;28;1826;-74
2022/12/14 00:06:58;;;;;;;12.13;5.80;;;;;;;-0.14;62.11;98278.44;342060;28;1261;-74
2022/12/14 00:07:10;;;;;;;10.60;5.55;;;;;;;-0.12;62.70;98283.50;340925;29;1137;-75
2022/12/14 00:07:21;;;;;;;9.75;5.45;;;;;;;-0.10;62.75;98280.09;341588;28;1312;-75
2022/12/14 00:07:33;;;;;;;10.43;5.70;;;;;;;-0.11;63.10;98280.94;342234;28;1023;-76
2022/12/14 00:07:45;;;;;;;11.30;6.20;;;;;;;-0.10;62.33;98287.75;341990;28;2025;-76
2022/12/14 00:08:00;;;;;;;10.38;5.88;;;;;;;-0.10;62.39;98285.19;342354;28;1096;-75
2022/12/14 00:08:14;;;;;;;9.63;5.78;;;;;;;-0.08;62.14;98288.59;342310;28;1622;-77
2022/12/14 00:08:26;;;;;;;10.88;5.90;;;;;;;-0.10;62.37;98282.66;343645;28;801;-74
2022/12/14 00:08:39;;;;;;;11.02;5.88;;;;;;;-0.11;62.73;98280.94;343463;28;1238;-77
2022/12/14 00:08:56;;;;;;;10.52;5.75;;;;;;;-0.11;62.40;98280.94;342824;28;1860;-75
2022/12/14 00:09:08;;;;;;;10.55;5.50;;;;;;;-0.09;62.56;98284.31;342533;28;824;-74
2022/12/14 00:09:20;;;;;;;11.15;5.57;;;;;;;-0.08;62.16;98282.59;342134;28;1199;-74
2022/12/14 00:09:32;;;;;;;11.35;5.57;;;;;;;-0.08;62.54;98286.03;342073;28;1183;-74
2022/12/14 00:09:45;;;;;;;10.48;5.68;;;;;;;-0.06;62.31;98279.19;340729;29;1063;-74
2022/12/14 00:09:57;;;;;;;10.27;5.80;;;;;;;-0.06;62.25;98286.84;338822;29;1881;-76
2022/12/14 00:10:10;;;;;;;10.05;5.90;;;;;;;-0.06;62.82;98279.19;339378;29;1846;-76
2022/12/14 00:10:22;;;;;;;10.48;5.95;;;;;;;-0.06;62.28;98276.63;338790;29;1776;-74
2022/12/14 00:10:36;;;;;;;9.68;5.80;;;;;;;-0.04;62.44;98279.16;340132;29;1841;-73
2022/12/14 00:10:48;;;;;;;9.77;5.65;;;;;;;-0.02;62.20;98285.09;340797;29;1069;-75
2022/12/14 00:11:00;;;;;;;9.65;5.57;;;;;;;-0.02;62.75;98285.09;339914;29;1995;-74
2022/12/14 00:11:15;;;;;;;9.52;5.70;;;;;;;-0.02;62.09;98287.63;341538;28;1079;-74
2022/12/14 00:11:28;;;;;;;9.25;5.40;;;;;;;-0.03;62.20;98286.81;341066;29;1337;-76
2022/12/14 00:11:40;;;;;;;10.27;5.32;;;;;;;-0.03;62.77;98284.25;341221;29;745;-75
2022/12/14 00:11:52;;;;;;;10.38;5.95;;;;;;;0.00;62.45;98273.16;342262;28;1985;-75
2022/12/14 00:12:04;;;;;;;10.80;6.30;;;;;;;-0.02;62.60;98280.84;341141;28;1987;-75
2022/12/14 00:12:16;;;;;;;9.82;5.95;;;;;;;-0.02;62.31;98285.94;340680;28;1157;-76
2022/12/14 00:12:28;;;;;;;9.05;5.47;;;;;;;0.01;62.57;98271.44;342474;28;815;-74
2022/12/14 00:12:40;;;;;;;9.00;5.50;;;;;;;0.01;61.93;98281.66;342056;28;1016;-74
2022/12/14 00:12:52;;;;;;;9.23;5.57;;;;;;;0.01;62.33;98277.41;340952;29;1066;-74
2022/12/14 00:13:05;;;;;;;9.25;5.57;;;;;;;0.01;62.23;98276.56;340709;29;1081;-74
2022/12/14 00:13:17;;;;;;;9.88;5.45;;;;;;;0.00;62.42;98273.16;339891;28;1861;-74
2022/12/14 00:13:29;;;;;;;11.25;5.50;;;;;;;0.02;61.91;98273.13;339730;29;1160;-73
2022/12/14 00:13:42;;;;;;;11.43;5.78;;;;;;;0.03;61.82;98268.00;340562;29;2018;-78
2022/12/14 00:14:01;;;;;;;10.93;6.05;;;;;;;0.02;62.56;98266.34;339548;29;1049;-74
2022/12/14 00:14:13;;;;;;;10.52;5.70;;;;;;;0.02;61.96;98266.34;339572;29;2055;-78
2022/12/14 00:14:25;;;;;;;11.35;5.80;;;;;;;0.01;62.61;98268.91;340714;29;1455;-77
2022/12/14 00:14:38;;;;;;;11.32;5.75;;;;;;;0.01;61.95;98271.44;341782;28;4220;-74
2022/12/14 00:14:50;;;;;;;10.52;5.78;;;;;;;0.02;62.29;98271.44;341625;28;1381;-74
2022/12/14 00:15:03;;;;;;;9.23;5.38;;;;;;;0.03;62.80;98262.06;343264;28;1611;-74
2022/12/14 00:15:15;;;;;;;9.93;5.70;;;;;;;0.02;62.66;98265.47;342240;28;1141;-74
2022/12/14 00:15:27;;;;;;;9.65;5.68;;;;;;;0.04;61.92;98258.63;342573;28;1700;-75
2022/12/14 00:15:40;;;;;;;10.68;6.18;;;;;;;0.03;62.31;98264.63;343339;28;1021;-73
2022/12/14 00:15:52;;;;;;;9.70;5.75;;;;;;;0.03;62.12;98267.16;343437;28;1256;-76
2022/12/14 00:16:23;;;;;;;10.80;5.88;;;;;;;0.02;62.65;98260.34;341930;28;2005;-77
2022/12/14 00:16:35;;;;;;;9.55;5.80;;;;;;;0.01;62.35;98256.13;342688;28;1447;-74
2022/12/14 00:16:47;;;;;;;11.02;5.80;;;;;;;-0.02;62.14;98260.41;342584;28;1419;-74
2022/12/14 00:16:59;;;;;;;10.98;5.80;;;;;;;-0.01;62.92;98251.88;342383;28;1023;-74
2022/12/14 00:17:11;;;;;;;10.60;5.80;;;;;;;0.01;61.98;98258.69;340981;29;967;-74
2022/12/14 00:17:23;;;;;;;9.00;5.63;;;;;;;0.01;62.70;98258.69;340796;29;1227;-76
2022/12/14 00:17:35;;;;;;;9.80;5.90;;;;;;;0.01;62.34;98258.69;339811;28;1722;-78
2022/12/14 00:17:46;;;;;;;9.63;5.90;;;;;;;0.01;62.47;98258.69;341750;28;1519;-74
2022/12/14 00:17:59;;;;;;;9.18;5.93;;;;;;;-0.03;62.14;98257.88;342073;28;1064;-74
2022/12/14 00:18:11;;;;;;;8.63;5.68;;;;;;;-0.03;62.85;98253.59;341523;28;1823;-76
2022/12/14 00:18:23;;;;;;;9.48;6.00;;;;;;;-0.04;61.77;98257.03;340385;29;1091;-76
2022/12/14 00:18:36;;;;;;;9.43;5.90;;;;;;;-0.06;62.33;98258.75;340885;29;1002;-77
2022/12/14 00:18:51;;;;;;;9.00;5.68;;;;;;;-0.03;62.58;98260.41;341486;28;1348;-77
2022/12/14 00:19:04;;;;;;;9.23;5.60;;;;;;;-0.03;62.36;98253.59;342553;28;860;-77
2022/12/14 00:19:17;;;;;;;10.43;5.47;;;;;;;-0.04;62.56;98262.13;340792;29;1301;-74
2022/12/14 00:19:29;;;;;;;10.88;5.45;;;;;;;-0.03;62.63;98258.69;340511;28;2208;-74
2022/12/14 00:19:40;;;;;;;9.43;5.38;;;;;;;-0.02;62.66;98254.44;341791;28;1681;-74
2022/12/14 00:19:53;;;;;;;8.57;5.55;;;;;;;-0.03;61.96;98257.88;341161;28;1914;-74
2022/12/14 00:20:06;;;;;;;8.98;5.68;;;;;;;-0.04;61.94;98257.03;340521;28;1372;-74
2022/12/14 00:20:19;;;;;;;10.00;5.50;;;;;;;-0.03;62.52;98258.69;342873;28;1308;-76
2022/12/14 00:20:32;;;;;;;10.27;5.47;;;;;;;-0.03;62.38;98258.69;341844;28;1498;-77
2022/12/14 00:20:44;;;;;;;9.20;5.20;;;;;;;-0.06;62.91;98258.75;342108;28;1646;-74
2022/12/14 00:21:05;;;;;;;7.90;5.40;;;;;;;-0.06;62.80;98263.88;340895;29;1218;-74
2022/12/14 00:21:17;;;;;;;9.48;6.05;;;;;;;-0.07;62.72;98257.06;339722;29;1312;-74
2022/12/14 00:21:29;;;;;;;10.13;6.10;;;;;;;-0.05;62.25;98262.97;340949;29;1031;-74
2022/12/14 00:21:41;;;;;;;10.35;6.20;;;;;;;-0.05;62.34;98260.44;340559;29;1163;-74
2022/12/14 00:21:53;;;;;;;10.00;5.97;;;;;;;-0.05;62.60;98264.69;340555;29;1757;-75
2022/12/14 00:22:05;;;;;;;9.52;5.93;;;;;;;-0.03;62.22;98257.88;341073;29;1007;-74
2022/12/14 00:22:17;;;;;;;8.48;5.63;;;;;;;-0.03;62.87;98258.69;340700;29;1369;-75
2022/12/14 00:22:29;;;;;;;9.13;5.80;;;;;;;-0.02;62.93;98255.31;339760;29;1309;-76
2022/12/14 00:22:41;;;;;;;9.70;5.80;;;;;;;-0.04;62.55;98257.03;339611;29;1125;-76
2022/12/14 00:22:54;;;;;;;11.18;5.63;;;;;;;-0.02;62.57;98255.31;339424;29;1166;-76
2022/12/14 00:23:06;;;;;;;10.48;5.40;;;;;;;-0.02;62.38;98260.41;340900;29;1393;-76
2022/12/14 00:23:18;;;;;;;9.43;5.50;;;;;;;-0.01;62.74;98264.63;341226;28;1221;-75
2022/12/14 00:23:31;;;;;;;9.07;5.47;;;;;;;-0.02;63.09;98254.44;342143;28;1108;-74
2022/12/14 00:23:51;;;;;;;8.85;5.45;;;;;;;-0.02;62.74;98260.41;341593;28;1629;-77
2022/12/14 00:24:03;;;;;;;9.25;5.85;;;;;;;-0.03;62.39;98253.59;341324;28;1706;-76
2022/12/14 00:24:15;;;;;;;9.88;6.00;;;;;;;-0.02;63.19;98257.84;340896;29;1020;-76
2022/12/14 00:24:27;;;;;;;10.23;5.95;;;;;;;-0.02;62.83;98250.19;339446;29;1013;-76
2022/12/14 00:24:39;;;;;;;9.77;5.63;;;;;;;-0.01;62.80;98253.59;340798;29;1189;-75
2022/12/14 00:24:51;;;;;;;9.65;5.75;;;;;;;-0.02;62.85;98252.75;340644;29;1043;-76
2022/12/14 00:25:03;;;;;;;10.45;5.82;;;;;;;0.02;63.26;98255.25;341294;28;1876;-76
2022/12/14 00:25:15;;;;;;;10.10;5.72;;;;;;;-0.07;62.82;98256.22;341895;28;1776;-74
2022/12/14 00:25:27;;;;;;;9.60;5.43;;;;;;;-0.07;63.36;98253.66;341762;28;1989;-74
2022/12/14 00:25:39;;;;;;;9.98;5.68;;;;;;;-0.04;63.44;98256.16;342152;28;1476;-74
2022/12/14 00:25:51;;;;;;;9.85;5.57;;;;;;;-0.04;63.02;98257.03;342253;28;1025;-74
2022/12/14 00:26:12;;;;;;;9.48;5.50;;;;;;;-0.03;62.82;98255.31;341980;28;1150;-74
2022/12/14 00:26:29;;;;;;;9.60;5.60;;;;;;;-0.02;63.05;98257.84;343312;28;1152;-74
2022/12/14 00:26:42;;;;;;;11.05;5.90;;;;;;;-0.01;62.28;98256.97;344583;28;1416;-77
2022/12/14 00:26:54;;;;;;;13.50;6.30;;;;;;;0.01;63.18;98254.41;342642;28;1230;-74
2022/12/14 00:27:06;;;;;;;12.48;6.18;;;;;;;0.02;63.17;98255.25;343992;28;753;-74
2022/12/14 00:27:18;;;;;;;9.52;5.75;;;;;;;0.03;62.76;98251.84;342838;28;1867;-75
2022/12/14 00:27:30;;;;;;;9.05;5.75;;;;;;;0.03;62.09;98251.84;343576;28;1067;-77
2022/12/14 00:27:43;;;;;;;9.27;5.85;;;;;;;0.04;62.33;98253.50;342610;28;1831;-77
2022/12/14 00:27:55;;;;;;;9.13;5.60;;;;;;;0.03;62.67;98256.94;343645;28;1119;-75
2022/12/14 00:28:07;;;;;;;9.07;5.43;;;;;;;0.05;62.24;98252.66;342046;28;1180;-74
2022/12/14 00:28:19;;;;;;;9.30;5.38;;;;;;;0.05;62.84;98255.22;341112;28;1989;-76
2022/12/14 00:28:31;;;;;;;9.93;5.78;;;;;;;0.05;62.58;98260.31;341931;28;1692;-77
2022/12/14 00:28:45;;;;;;;11.25;5.90;;;;;;;0.06;62.62;98257.75;342219;28;1038;-77
2022/12/14 00:28:59;;;;;;;11.75;5.70;;;;;;;0.07;62.97;98258.59;342126;28;1187;-74
2022/12/14 00:29:11;;;;;;;10.77;5.80;;;;;;;0.07;63.11;98258.59;341805;28;1467;-73
2022/12/14 00:29:22;;;;;;;9.93;5.95;;;;;;;0.08;62.37;98255.16;341665;28;1454;-74
2022/12/14 00:29:34;;;;;;;9.40;5.75;;;;;;;0.09;62.37;98256.88;342286;28;1098;-74
2022/12/14 00:29:46;;;;;;;9.30;5.75;;;;;;;0.02;62.31;98258.66;342588;28;734;-74
2022/12/14 00:29:58;;;;;;;8.85;5.70;;;;;;;0.04;63.19;98258.63;342299;28;1106;-75
2022/12/14 00:30:16;;;;;;;8.98;5.65;;;;;;;0.04;63.01;98266.28;342866;28;1095;-74
2022/12/14 00:30:28;;;;;;;9.57;5.63;;;;;;;0.03;62.61;98262.91;342137;28;1828;-76
2022/12/14 00:30:40;;;;;;;9.70;5.63;;;;;;;0.05;62.28;98265.44;342098;28;1104;-74
2022/12/14 00:30:56;;;;;;;9.70;5.80;;;;;;;0.02;62.43;98257.81;342157;28;1231;-73
2022/12/14 00:31:10;;;;;;;10.80;6.13;;;;;;;0.03;63.04;98257.78;341579;28;1475;-76
2022/12/14 00:31:23;;;;;;;10.73;6.18;;;;;;;0.05;62.85;98255.22;339789;29;1213;-74
2022/12/14 00:31:36;;;;;;;10.45;5.93;;;;;;;0.05;62.73;98265.44;338304;29;1751;-76
2022/12/14 00:31:48;;;;;;;10.07;5.60;;;;;;;0.07;63.34;98268.81;340776;29;1137;-76
2022/12/14 00:32:00;;;;;;;10.18;5.57;;;;;;;0.07;62.67;98263.72;341056;29;1284;-73
2022/12/14 00:32:12;;;;;;;10.75;5.60;;;;;;;0.07;62.39;98261.16;340730;29;1294;-74
2022/12/14 00:32:24;;;;;;;10.65;5.55;;;;;;;0.07;62.76;98258.59;338987;29;1903;-74
2022/12/14 00:32:36;;;;;;;11.23;5.80;;;;;;;0.08;62.15;98260.28;338423;29;1458;-74
2022/12/14 00:32:48;;;;;;;10.88;5.82;;;;;;;0.06;62.42;98262.00;339177;29;1826;-74
2022/12/14 00:33:00;;;;;;;11.45;5.88;;;;;;;0.06;62.83;98257.75;339258;29;1732;-74
2022/12/14 00:33:12;;;;;;;11.27;5.97;;;;;;;0.06;62.23;98259.44;339759;29;1176;-74
2022/12/14 00:33:24;;;;;;;10.77;5.90;;;;;;;-0.03;62.03;98262.97;339725;29;1205;-74
2022/12/14 00:33:36;;;;;;;9.38;5.88;;;;;;;0.01;62.46;98258.69;339981;29;1075;-76
2022/12/14 00:33:49;;;;;;;9.32;5.95;;;;;;;-0.01;63.28;98261.25;341346;28;1807;-74
2022/12/14 00:34:01;;;;;;;9.77;5.90;;;;;;;-0.01;62.63;98259.53;341669;28;2063;-73
2022/12/14 00:34:13;;;;;;;9.60;5.72;;;;;;;-0.03;62.01;98258.69;342491;28;1190;-74
2022/12/14 00:34:25;;;;;;;9.60;5.60;;;;;;;0.00;62.43;98262.94;340829;28;1916;-74
2022/12/14 00:34:37;;;;;;;10.05;5.78;;;;;;;-0.01;63.05;98262.09;341099;28;1489;-79
2022/12/14 00:34:49;;;;;;;10.27;5.88;;;;;;;-0.01;62.73;98267.19;342849;28;1483;-74
2022/12/14 00:35:01;;;;;;;9.75;5.75;;;;;;;-0.05;62.81;98254.47;343551;28;1100;-73
2022/12/14 00:35:16;;;;;;;8.75;5.60;;;;;;;-0.02;63.21;98255.31;343677;28;1130;-74
2022/12/14 00:35:28;;;;;;;9.77;5.70;;;;;;;-0.04;62.91;98262.13;342529;28;1072;-76
2022/12/14 00:35:40;;;;;;;11.43;5.93;;;;;;;-0.03;62.46;98258.69;342389;28;1031;-77
2022/12/14 00:35:52;;;;;;;10.93;5.82;;;;;;;-0.01;62.88;98256.97;341807;28;1779;-77
2022/12/14 00:36:06;;;;;;;10.05;5.75;;;;;;;0.00;62.94;98252.72;341385;28;1049;-77
2022/12/14 00:36:19;;;;;;;9.43;5.70;;;;;;;0.01;62.82;98263.78;341394;28;1252;-75
2022/12/14 00:36:31;;;;;;;8.63;5.45;;;;;;;0.02;62.95;98256.13;342449;28;1174;-74
2022/12/14 00:36:43;;;;;;;10.52;5.60;;;;;;;0.01;62.56;98253.56;342561;28;1006;-74
2022/12/14 00:36:55;;;;;;;10.40;5.53;;;;;;;0.02;62.46;98256.13;342438;28;1059;-74
2022/12/14 00:37:07;;;;;;;10.15;5.63;;;;;;;0.03;62.31;98247.56;341924;28;1064;-74
2022/12/14 00:37:18;;;;;;;10.95;5.93;;;;;;;0.05;63.00;98255.22;341092;28;1770;-74
2022/12/14 00:37:30;;;;;;;10.38;5.82;;;;;;;0.06;62.65;98254.34;341070;29;1031;-76
2022/12/14 00:37:43;;;;;;;9.85;5.53;;;;;;;0.05;62.66;98245.00;341716;28;1495;-75
2022/12/14 00:37:59;;;;;;;9.10;5.40;;;;;;;0.03;62.45;98246.72;342114;28;1028;-75
2022/12/14 00:38:11;;;;;;;8.68;5.45;;;;;;;0.04;62.54;98250.97;343055;28;1529;-74
2022/12/14 00:38:23;;;;;;;9.50;5.77;;;;;;;0.04;62.56;98248.41;342692;28;1330;-74
2022/12/14 00:38:36;;;;;;;10.40;5.95;;;;;;;0.05;62.98;98245.00;343543;28;1037;-75
2022/12/14 00:38:48;;;;;;;10.75;5.80;;;;;;;0.03;62.00;98251.84;343527;28;1274;-74
2022/12/14 00:39:00;;;;;;;10.73;5.60;;;;;;;0.06;62.05;98246.69;342489;28;985;-74
2022/12/14 00:39:12;;;;;;;11.00;5.35;;;;;;;0.05;62.70;98243.28;341582;28;1937;-76
2022/12/14 00:39:24;;;;;;;9.82;5.40;;;;;;;0.08;62.85;98242.38;342011;28;1137;-75
2022/12/14 00:39:36;;;;;;;10.30;5.85;;;;;;;0.04;62.64;98243.28;342239;28;1275;-76
2022/12/14 00:39:48;;;;;;;10.60;6.00;;;;;;;0.04;62.21;98238.19;342615;28;733;-77
2022/12/14 00:40:00;;;;;;;10.65;5.95;;;;;;;0.02;62.58;98250.13;342179;28;1183;-77
2022/12/14 00:40:12;;;;;;;10.88;5.78;;;;;;;-0.01;62.64;98246.75;342236;28;1161;-74
2022/12/14 00:40:24;;;;;;;10.38;5.57;;;;;;;0.03;62.26;98251.84;341950;28;1477;-77
2022/12/14 00:40:36;;;;;;;8.63;5.50;;;;;;;0.02;62.55;98245.03;341969;28;1214;-75
2022/12/14 00:40:48;;;;;;;9.05;5.68;;;;;;;0.04;62.50;98240.75;340074;28;1725;-77
2022/12/14 00:41:01;;;;;;;9.90;5.80;;;;;;;-0.04;62.44;98246.81;341291;28;1080;-74
2022/12/14 00:41:13;;;;;;;10.73;5.70;;;;;;;-0.06;63.21;98238.31;341616;28;1524;-74
2022/12/14 00:41:25;;;;;;;10.35;5.55;;;;;;;-0.05;62.86;98250.22;340558;28;1667;-75
2022/12/14 00:41:37;;;;;;;11.30;5.82;;;;;;;-0.04;62.16;98241.69;341070;29;1166;-74
2022/12/14 00:41:49;;;;;;;11.93;6.13;;;;;;;-0.03;62.56;98243.38;340984;29;1067;-75
2022/12/14 00:42:01;;;;;;;10.23;5.80;;;;;;;-0.07;62.79;98240.88;341957;28;1254;-76
2022/12/14 00:42:13;;;;;;;9.52;5.80;;;;;;;-0.05;62.85;98242.56;342429;28;1042;-74
2022/12/14 00:42:25;;;;;;;8.73;5.60;;;;;;;-0.06;62.96;98238.31;340782;29;1655;-75
2022/12/14 00:42:37;;;;;;;8.65;5.25;;;;;;;-0.05;62.59;98244.28;340896;29;1258;-76
2022/12/14 00:42:49;;;;;;;9.05;5.53;;;;;;;-0.04;63.11;98239.16;341392;28;1071;-74
2022/12/14 00:43:01;;;;;;;9.30;5.85;;;;;;;-0.02;62.48;98237.41;342056;28;1061;-74
2022/12/14 00:43:13;;;;;;;9.55;6.13;;;;;;;-0.01;62.64;98241.66;342601;28;738;-75
2022/12/14 00:43:25;;;;;;;10.18;6.10;;;;;;;-0.02;62.83;98239.97;340846;28;1913;-75
2022/12/14 00:43:37;;;;;;;10.73;6.15;;;;;;;-0.09;62.52;98235.78;340811;28;1716;-77
2022/12/14 00:43:49;;;;;;;10.65;6.25;;;;;;;-0.09;62.72;98237.50;340990;29;1066;-74
2022/12/14 00:44:01;;;;;;;11.27;6.45;;;;;;;-0.09;62.60;98238.34;341030;29;1103;-75
2022/12/14 00:44:14;;;;;;;11.20;6.20;;;;;;;-0.07;63.15;98239.16;341264;28;1669;-74
2022/12/14 00:44:26;;;;;;;10.77;5.95;;;;;;;-0.05;63.23;98234.88;342149;28;1055;-77
2022/12/14 00:44:38;;;;;;;10.65;5.97;;;;;;;-0.03;62.79;98237.44;341777;28;1774;-79
2022/12/14 00:44:50;;;;;;;10.52;5.72;;;;;;;-0.03;62.79;98234.88;342210;28;1064;-73
2022/12/14 00:45:03;;;;;;;9.73;5.57;;;;;;;-0.05;62.55;98234.88;342174;28;1198;-74
2022/12/14 00:45:15;;;;;;;10.82;5.85;;;;;;;-0.14;63.03;98232.47;343281;28;1202;-74
2022/12/14 00:45:27;;;;;;;11.55;6.00;;;;;;;-0.14;63.32;98239.25;342123;28;2070;-75
2022/12/14 00:45:42;;;;;;;11.25;5.85;;;;;;;-0.14;63.05;98234.16;342027;28;1017;-75
2022/12/14 00:45:54;;;;;;;10.48;5.85;;;;;;;-0.14;63.64;98235.03;343470;28;1338;-74
2022/12/14 00:46:07;;;;;;;10.02;5.68;;;;;;;-0.14;63.50;98236.72;343979;28;733;-74
2022/12/14 00:46:19;;;;;;;9.68;5.70;;;;;;;-0.12;63.56;98229.88;343619;28;1155;-74
2022/12/14 00:46:31;;;;;;;10.48;5.78;;;;;;;-0.16;63.42;98229.09;343503;28;1184;-73
2022/12/14 00:46:43;;;;;;;10.38;5.85;;;;;;;-0.13;63.63;98231.59;343778;28;947;-76
2022/12/14 00:46:55;;;;;;;8.95;5.70;;;;;;;-0.14;63.03;98232.47;342709;28;1534;-74
2022/12/14 00:47:07;;;;;;;8.73;5.65;;;;;;;-0.12;63.58;98233.28;343534;28;1330;-74
2022/12/14 00:47:19;;;;;;;9.25;5.60;;;;;;;-0.09;63.21;98238.34;343532;28;1216;-75
2022/12/14 00:47:31;;;;;;;9.52;5.60;;;;;;;-0.06;62.82;98232.34;342330;28;1116;-73
2022/12/14 00:47:51;;;;;;;9.32;5.40;;;;;;;-0.07;63.27;98235.78;341665;28;1464;-75
2022/12/14 00:48:03;;;;;;;9.68;5.50;;;;;;;-0.07;63.18;98236.63;341221;28;1983;-77
2022/12/14 00:48:17;;;;;;;10.20;5.70;;;;;;;-0.06;63.46;98238.31;341954;28;1740;-73
2022/12/14 00:48:29;;;;;;;10.07;5.85;;;;;;;-0.07;62.86;98230.66;342342;28;1032;-74
2022/12/14 00:48:43;;;;;;;10.45;5.90;;;;;;;-0.05;63.21;98229.78;342181;28;1297;-76
2022/12/14 00:48:55;;;;;;;10.13;6.03;;;;;;;-0.05;63.12;98234.88;342670;28;750;-74
2022/12/14 00:49:06;;;;;;;10.05;6.25;;;;;;;-0.04;63.50;98236.59;341520;28;1723;-77
2022/12/14 00:49:18;;;;;;;9.43;6.00;;;;;;;-0.03;63.25;98239.97;342312;28;1649;-75
2022/12/14 00:49:30;;;;;;;9.60;5.88;;;;;;;-0.02;63.70;98229.75;339996;28;2976;-77
2022/12/14 00:49:42;;;;;;;9.48;5.68;;;;;;;-0.01;62.99;98228.03;343025;28;3260;-78
2022/12/14 00:49:54;;;;;;;9.30;5.85;;;;;;;0.01;63.41;98228.03;343935;28;1210;-75
2022/12/14 00:50:07;;;;;;;8.57;5.72;;;;;;;0.03;63.52;98236.50;343874;28;3004;-77
2022/12/14 00:50:19;;;;;;;9.77;5.88;;;;;;;0.04;63.37;98233.06;342688;28;1200;-74
2022/12/14 00:50:31;;;;;;;10.50;5.90;;;;;;;0.02;63.35;98229.69;343427;28;2063;-77
2022/12/14 00:50:45;;;;;;;10.38;5.95;;;;;;;0.03;62.47;98231.41;343729;28;1649;-75
2022/12/14 00:50:59;;;;;;;10.63;5.72;;;;;;;0.04;63.23;98233.06;343764;28;1091;-73
2022/12/14 00:51:13;;;;;;;10.65;5.50;;;;;;;0.04;62.40;98233.94;342033;28;1593;-79
2022/12/14 00:51:25;;;;;;;11.52;5.53;;;;;;;0.05;63.02;98235.63;341730;28;1340;-74
2022/12/14 00:51:37;;;;;;;11.50;6.03;;;;;;;0.03;63.18;98231.41;342350;28;1355;-74
2022/12/14 00:51:49;;;;;;;11.18;5.90;;;;;;;0.05;62.92;98229.66;341637;28;1838;-74
2022/12/14 00:52:01;;;;;;;9.27;5.72;;;;;;;0.07;62.78;98235.59;342392;28;1050;-75
2022/12/14 00:52:13;;;;;;;9.70;5.82;;;;;;;0.06;63.15;98236.47;341152;29;1164;-73
2022/12/14 00:52:25;;;;;;;9.77;6.00;;;;;;;0.04;62.33;98227.97;340316;29;1732;-74
2022/12/14 00:52:37;;;;;;;9.63;5.90;;;;;;;0.07;62.58;98233.06;340081;29;1694;-74
2022/12/14 00:52:49;;;;;;;9.13;5.63;;;;;;;0.06;63.12;98231.34;339737;29;1183;-74
2022/12/14 00:53:01;;;;;;;9.38;5.60;;;;;;;0.08;62.48;98234.72;338488;29;1049;-74
2022/12/14 00:53:13;;;;;;;9.93;5.53;;;;;;;0.08;62.76;98235.59;338993;29;1066;-74
2022/12/14 00:53:25;;;;;;;9.55;5.55;;;;;;;0.04;62.81;98238.19;339177;29;1711;-76
2022/12/14 00:53:37;;;;;;;9.55;5.47;;;;;;;0.07;62.16;98235.59;339400;29;1411;-74
2022/12/14 00:53:49;;;;;;;10.35;5.63;;;;;;;0.08;62.84;98234.72;339688;29;1040;-74
2022/12/14 00:54:01;;;;;;;10.00;5.60;;;;;;;0.08;62.90;98235.59;339739;29;1266;-74
2022/12/14 00:54:13;;;;;;;8.77;5.57;;;;;;;0.07;62.86;98233.88;340480;29;1893;-77
2022/12/14 00:54:25;;;;;;;9.35;5.78;;;;;;;0.07;62.25;98239.00;340934;29;1617;-74
2022/12/14 00:54:37;;;;;;;9.82;5.90;;;;;;;0.09;62.65;98244.09;341080;28;1004;-75
2022/12/14 00:54:48;;;;;;;10.05;5.80;;;;;;;0.07;62.51;98239.00;342312;28;1074;-76
2022/12/14 00:55:00;;;;;;;8.63;5.32;;;;;;;0.10;62.55;98243.22;342401;28;1011;-74
2022/12/14 00:55:13;;;;;;;8.35;5.50;;;;;;;0.10;62.66;98233.00;342038;28;1621;-76
2022/12/14 00:55:25;;;;;;;9.35;5.55;;;;;;;0.09;62.31;98234.72;341017;28;1215;-75
2022/12/14 00:55:41;;;;;;;9.93;5.65;;;;;;;0.12;62.10;98241.47;342034;28;2614;-74
2022/12/14 00:55:53;;;;;;;10.73;6.18;;;;;;;0.11;62.38;98234.69;342572;28;855;-75
2022/12/14 00:56:06;;;;;;;10.73;6.25;;;;;;;0.10;62.31;98238.09;342314;28;1183;-77
2022/12/14 00:56:18;;;;;;;10.10;5.88;;;;;;;0.10;62.49;98238.09;342108;28;1251;-77
2022/12/14 00:56:30;;;;;;;9.50;5.82;;;;;;;0.09;62.37;98234.72;341157;28;1652;-76
2022/12/14 00:56:42;;;;;;;8.73;5.57;;;;;;;0.12;62.25;98241.47;341721;28;1626;-77
2022/12/14 00:56:54;;;;;;;8.15;5.30;;;;;;;0.09;62.04;98241.53;343122;28;1678;-75
2022/12/14 00:57:07;;;;;;;8.88;5.25;;;;;;;0.08;62.33;98237.28;341079;29;1032;-77
2022/12/14 00:57:19;;;;;;;10.65;5.60;;;;;;;0.08;61.99;98237.28;341487;28;1193;-76
2022/12/14 00:57:30;;;;;;;11.23;5.88;;;;;;;0.07;62.00;98233.06;342107;28;1867;-75
2022/12/14 00:57:42;;;;;;;10.05;5.80;;;;;;;0.07;62.72;98227.94;341900;28;1704;-77
2022/12/14 00:57:54;;;;;;;9.77;5.95;;;;;;;0.09;63.06;98238.97;343921;28;1266;-77
2022/12/14 00:58:09;;;;;;;10.38;6.03;;;;;;;0.08;62.46;98230.47;343807;28;1076;-77
2022/12/14 00:58:23;;;;;;;9.90;5.57;;;;;;;0.10;63.11;98235.56;341488;28;1421;-76
2022/12/14 00:58:36;;;;;;;8.82;5.35;;;;;;;0.12;63.07;98236.38;340596;28;1972;-74
2022/12/14 00:58:52;;;;;;;8.25;5.30;;;;;;;0.13;62.41;98232.97;340459;28;1761;-80
2022/12/14 00:59:04;;;;;;;8.55;5.25;;;;;;;0.14;62.88;98229.53;342216;28;1092;-74
2022/12/14 00:59:17;;;;;;;8.70;5.35;;;;;;;0.15;62.49;98237.19;342098;28;1274;-77
2022/12/14 00:59:36;;;;;;;8.95;5.40;;;;;;;0.15;62.89;98236.34;341020;29;1103;-74
2022/12/14 00:59:48;;;;;;;9.20;5.50;;;;;;;0.17;63.03;98229.50;341161;29;1907;-73
2022/12/14 01:00:00;;;;;;;8.77;5.38;;;;;;;0.16;63.02;98233.78;340032;28;1884;-75
2022/12/14 01:00:12;;;;;;;8.55;5.47;;;;;;;0.17;62.74;98235.44;341603;28;1373;-75
2022/12/14 01:00:24;;;;;;;10.20;6.10;;;;;;;0.18;62.76;98231.19;341767;28;1128;-78
2022/12/14 01:00:37;;;;;;;9.75;5.85;;;;;;;0.19;62.46;98238.00;342183;28;1224;-77
2022/12/14 01:01:01;;;;;;;10.10;5.70;;;;;;;0.07;62.48;98233.06;342153;28;1193;-76
2022/12/14 01:01:13;;;;;;;12.90;5.53;;;;;;;0.06;62.35;98231.34;341077;29;1928;-77
2022/12/14 01:01:25;;;;;;;9.02;5.20;;;;;;;0.10;62.45;98227.88;342075;28;1315;-76